sensor_id;sensor_type;location;lat;lon;timestamp;P1;durP1;ratioP1;P2;durP2;ratioP2
3817;SDS011;1924;48.078;11.516;2024-03-02T00:01:04;28.80;;;0.80;;
3817;SDS011;1924;48.078;11.516;2024-03-02T00:03:32;28.77;;;0.80;;
3817;SDS011;1924;48.078;11.516;2024-03-02T00:05:59;28.87;;;0.80;;
3817;SDS011;1924;48.078;11.516;2024-03-02T00:08:27;28.87;;;0.70;;
3817;SDS011;1924;48.078;11.516;2024-03-02T00:10:57;28.70;;;0.80;;
3817;SDS011;1924;48.078;11.516;2024-03-02T00:13:24;28.80;;;0.80;;
3817;SDS011;1924;48.078;11.516;2024-03-02T00:15:52;28.77;;;0.80;;
3817;SDS011;1924;48.078;11.516;2024-03-02T00:18:20;28.90;;;0.80;;
3817;SDS011;1924;48.078;11.516;2024-03-02T00:20:52;28.90;;;0.80;;
3817;SDS011;1924;48.078;11.516;2024-03-02T00:23:20;28.90;;;0.80;;
3817;SDS011;1924;48.078;11.516;2024-03-02T00:25:48;28.80;;;0.80;;
3817;SDS011;1924;48.078;11.516;2024-03-02T00:28:19;28.93;;;0.80;;
3817;SDS011;1924;48.078;11.516;2024-03-02T00:30:51;28.80;;;0.80;;
3817;SDS011;1924;48.078;11.516;2024-03-02T00:33:23;28.90;;;0.80;;
3817;SDS011;1924;48.078;11.516;2024-03-02T00:35:52;28.80;;;0.80;;
3817;SDS011;1924;48.078;11.516;2024-03-02T00:38:19;28.87;;;0.80;;
3817;SDS011;1924;48.078;11.516;2024-03-02T00:40:48;28.70;;;0.80;;
3817;SDS011;1924;48.078;11.516;2024-03-02T00:46:13;28.90;;;0.90;;
3817;SDS011;1924;48.078;11.516;2024-03-02T00:48:45;28.73;;;1.03;;
3817;SDS011;1924;48.078;11.516;2024-03-02T00:51:17;28.90;;;0.90;;
3817;SDS011;1924;48.078;11.516;2024-03-02T00:53:44;28.70;;;0.80;;
3817;SDS011;1924;48.078;11.516;2024-03-02T00:56:12;28.93;;;0.80;;
3817;SDS011;1924;48.078;11.516;2024-03-02T00:58:39;28.90;;;0.80;;
3817;SDS011;1924;48.078;11.516;2024-03-02T01:01:06;28.90;;;0.80;;
3817;SDS011;1924;48.078;11.516;2024-03-02T01:03:33;28.90;;;0.80;;
3817;SDS011;1924;48.078;11.516;2024-03-02T01:06:00;29.00;;;0.80;;
3817;SDS011;1924;48.078;11.516;2024-03-02T01:08:27;28.80;;;0.80;;
3817;SDS011;1924;48.078;11.516;2024-03-02T01:10:54;28.90;;;0.80;;
3817;SDS011;1924;48.078;11.516;2024-03-02T05:02:43;28.97;;;0.80;;
3817;SDS011;1924;48.078;11.516;2024-03-02T05:05:09;28.90;;;0.80;;
3817;SDS011;1924;48.078;11.516;2024-03-02T05:07:36;28.90;;;0.80;;
3817;SDS011;1924;48.078;11.516;2024-03-02T05:10:03;28.90;;;0.80;;
3817;SDS011;1924;48.078;11.516;2024-03-02T05:12:30;28.80;;;0.80;;
3817;SDS011;1924;48.078;11.516;2024-03-02T05:15:14;28.80;;;0.80;;
3817;SDS011;1924;48.078;11.516;2024-03-02T05:17:43;28.70;;;0.80;;
3817;SDS011;1924;48.078;11.516;2024-03-02T05:20:09;29.00;;;0.80;;
3817;SDS011;1924;48.078;11.516;2024-03-02T05:22:37;28.80;;;0.80;;
3817;SDS011;1924;48.078;11.516;2024-03-02T05:25:04;29.00;;;0.80;;
3817;SDS011;1924;48.078;11.516;2024-03-02T05:27:32;28.90;;;0.80;;
3817;SDS011;1924;48.078;11.516;2024-03-02T05:29:59;29.00;;;0.80;;
3817;SDS011;1924;48.078;11.516;2024-03-02T05:32:26;29.00;;;0.80;;
3817;SDS011;1924;48.078;11.516;2024-03-02T05:34:54;29.00;;;0.80;;
3817;SDS011;1924;48.078;11.516;2024-03-02T05:37:21;29.00;;;0.80;;
3817;SDS011;1924;48.078;11.516;2024-03-02T05:39:48;29.00;;;0.80;;
3817;SDS011;1924;48.078;11.516;2024-03-02T05:42:15;28.83;;;0.80;;
3817;SDS011;1924;48.078;11.516;2024-03-02T05:44:42;28.80;;;0.80;;
3817;SDS011;1924;48.078;11.516;2024-03-02T05:47:08;29.00;;;0.80;;
3817;SDS011;1924;48.078;11.516;2024-03-02T05:49:35;28.90;;;0.80;;
3817;SDS011;1924;48.078;11.516;2024-03-02T05:52:03;29.00;;;0.80;;
3817;SDS011;1924;48.078;11.516;2024-03-02T05:54:30;28.80;;;0.80;;
3817;SDS011;1924;48.078;11.516;2024-03-02T05:56:57;29.00;;;0.80;;
3817;SDS011;1924;48.078;11.516;2024-03-02T05:59:41;28.90;;;0.80;;
3817;SDS011;1924;48.078;11.516;2024-03-02T06:02:08;28.80;;;0.80;;
3817;SDS011;1924;48.078;11.516;2024-03-02T06:04:35;28.90;;;0.80;;
3817;SDS011;1924;48.078;11.516;2024-03-02T06:07:03;28.90;;;0.80;;
3817;SDS011;1924;48.078;11.516;2024-03-02T06:09:30;29.00;;;0.80;;
3817;SDS011;1924;48.078;11.516;2024-03-02T06:11:57;29.00;;;0.80;;
3817;SDS011;1924;48.078;11.516;2024-03-02T06:14:23;28.90;;;0.80;;
3817;SDS011;1924;48.078;11.516;2024-03-02T06:16:50;29.00;;;0.80;;
3817;SDS011;1924;48.078;11.516;2024-03-02T06:19:17;28.90;;;0.80;;
3817;SDS011;1924;48.078;11.516;2024-03-02T06:21:44;29.00;;;0.80;;
3817;SDS011;1924;48.078;11.516;2024-03-02T06:24:12;28.90;;;0.80;;
3817;SDS011;1924;48.078;11.516;2024-03-02T06:26:39;28.80;;;0.80;;
3817;SDS011;1924;48.078;11.516;2024-03-02T06:29:05;28.90;;;0.80;;
3817;SDS011;1924;48.078;11.516;2024-03-02T06:31:32;28.83;;;0.80;;
3817;SDS011;1924;48.078;11.516;2024-03-02T06:34:00;29.00;;;0.80;;
3817;SDS011;1924;48.078;11.516;2024-03-02T06:36:28;28.90;;;0.80;;
3817;SDS011;1924;48.078;11.516;2024-03-02T06:38:55;28.80;;;0.80;;
3817;SDS011;1924;48.078;11.516;2024-03-02T06:41:23;29.00;;;0.80;;
3817;SDS011;1924;48.078;11.516;2024-03-02T06:43:49;29.10;;;0.80;;
3817;SDS011;1924;48.078;11.516;2024-03-02T06:46:24;28.90;;;0.80;;
3817;SDS011;1924;48.078;11.516;2024-03-02T06:48:51;28.80;;;0.80;;
3817;SDS011;1924;48.078;11.516;2024-03-02T06:51:17;28.90;;;0.80;;
3817;SDS011;1924;48.078;11.516;2024-03-02T06:53:44;28.90;;;0.80;;
3817;SDS011;1924;48.078;11.516;2024-03-02T06:56:11;28.90;;;0.80;;
3817;SDS011;1924;48.078;11.516;2024-03-02T06:58:39;28.80;;;0.80;;
3817;SDS011;1924;48.078;11.516;2024-03-02T07:01:07;28.90;;;0.80;;
3817;SDS011;1924;48.078;11.516;2024-03-02T07:03:34;28.80;;;0.80;;
3817;SDS011;1924;48.078;11.516;2024-03-02T07:06:01;28.77;;;0.80;;
3817;SDS011;1924;48.078;11.516;2024-03-02T07:08:29;28.90;;;0.80;;
3817;SDS011;1924;48.078;11.516;2024-03-02T07:10:55;28.80;;;0.80;;
3817;SDS011;1924;48.078;11.516;2024-03-02T07:13:22;28.90;;;0.80;;
3817;SDS011;1924;48.078;11.516;2024-03-02T07:15:51;28.90;;;0.80;;
3817;SDS011;1924;48.078;11.516;2024-03-02T07:18:45;28.90;;;0.80;;
3817;SDS011;1924;48.078;11.516;2024-03-02T07:21:16;28.90;;;0.80;;
3817;SDS011;1924;48.078;11.516;2024-03-02T07:23:43;28.80;;;0.80;;
3817;SDS011;1924;48.078;11.516;2024-03-02T07:26:10;28.70;;;0.80;;
3817;SDS011;1924;48.078;11.516;2024-03-02T07:28:37;28.80;;;0.80;;
3817;SDS011;1924;48.078;11.516;2024-03-02T07:31:05;28.80;;;0.80;;
3817;SDS011;1924;48.078;11.516;2024-03-02T07:33:32;28.70;;;0.80;;
3817;SDS011;1924;48.078;11.516;2024-03-02T07:35:59;28.80;;;0.80;;
3817;SDS011;1924;48.078;11.516;2024-03-02T07:38:27;28.80;;;0.80;;
3817;SDS011;1924;48.078;11.516;2024-03-02T07:40:54;29.00;;;0.80;;
3817;SDS011;1924;48.078;11.516;2024-03-02T07:43:21;28.70;;;0.80;;
3817;SDS011;1924;48.078;11.516;2024-03-02T07:45:48;28.80;;;0.80;;
3817;SDS011;1924;48.078;11.516;2024-03-02T07:48:16;28.90;;;0.80;;
3817;SDS011;1924;48.078;11.516;2024-03-02T07:50:43;28.97;;;0.80;;
3817;SDS011;1924;48.078;11.516;2024-03-02T07:53:10;29.00;;;0.80;;
3817;SDS011;1924;48.078;11.516;2024-03-02T07:55:37;29.20;;;0.80;;
3817;SDS011;1924;48.078;11.516;2024-03-02T07:58:03;29.10;;;0.80;;
3817;SDS011;1924;48.078;11.516;2024-03-02T08:00:30;29.10;;;0.80;;
3817;SDS011;1924;48.078;11.516;2024-03-02T08:02:57;29.20;;;0.80;;
3817;SDS011;1924;48.078;11.516;2024-03-02T08:05:25;29.40;;;0.80;;
3817;SDS011;1924;48.078;11.516;2024-03-02T08:07:52;29.30;;;0.80;;
3817;SDS011;1924;48.078;11.516;2024-03-02T08:10:19;29.40;;;0.80;;
3817;SDS011;1924;48.078;11.516;2024-03-02T08:12:47;29.50;;;0.80;;
3817;SDS011;1924;48.078;11.516;2024-03-02T08:15:14;29.70;;;0.80;;
3817;SDS011;1924;48.078;11.516;2024-03-02T08:17:41;29.80;;;0.80;;
3817;SDS011;1924;48.078;11.516;2024-03-02T08:20:13;29.70;;;0.80;;
3817;SDS011;1924;48.078;11.516;2024-03-02T08:22:41;29.70;;;0.80;;
3817;SDS011;1924;48.078;11.516;2024-03-02T08:25:08;29.80;;;0.77;;
3817;SDS011;1924;48.078;11.516;2024-03-02T08:27:35;29.80;;;0.80;;
3817;SDS011;1924;48.078;11.516;2024-03-02T08:30:02;29.57;;;0.80;;
3817;SDS011;1924;48.078;11.516;2024-03-02T08:32:31;29.70;;;0.80;;
3817;SDS011;1924;48.078;11.516;2024-03-02T08:34:58;29.50;;;0.80;;
3817;SDS011;1924;48.078;11.516;2024-03-02T08:37:25;29.70;;;0.80;;
3817;SDS011;1924;48.078;11.516;2024-03-02T08:39:53;29.60;;;0.80;;
3817;SDS011;1924;48.078;11.516;2024-03-02T08:42:20;29.60;;;0.80;;
3817;SDS011;1924;48.078;11.516;2024-03-02T08:44:47;29.67;;;0.80;;
3817;SDS011;1924;48.078;11.516;2024-03-02T08:47:14;29.60;;;0.80;;
3817;SDS011;1924;48.078;11.516;2024-03-02T08:49:40;29.57;;;0.80;;
3817;SDS011;1924;48.078;11.516;2024-03-02T08:52:07;29.50;;;0.80;;
3817;SDS011;1924;48.078;11.516;2024-03-02T08:54:35;29.50;;;0.80;;
3817;SDS011;1924;48.078;11.516;2024-03-02T08:57:04;29.80;;;0.80;;
3817;SDS011;1924;48.078;11.516;2024-03-02T08:59:33;29.50;;;0.80;;
3817;SDS011;1924;48.078;11.516;2024-03-02T09:02:00;29.50;;;0.80;;
3817;SDS011;1924;48.078;11.516;2024-03-02T09:04:27;29.40;;;0.80;;
3817;SDS011;1924;48.078;11.516;2024-03-02T09:06:54;29.47;;;0.80;;
3817;SDS011;1924;48.078;11.516;2024-03-02T09:09:22;29.50;;;0.80;;
3817;SDS011;1924;48.078;11.516;2024-03-02T09:11:49;29.37;;;0.80;;
3817;SDS011;1924;48.078;11.516;2024-03-02T09:14:17;29.37;;;0.80;;
3817;SDS011;1924;48.078;11.516;2024-03-02T09:16:44;29.47;;;0.80;;
3817;SDS011;1924;48.078;11.516;2024-03-02T09:19:11;29.30;;;0.80;;
3817;SDS011;1924;48.078;11.516;2024-03-02T09:21:38;29.40;;;0.80;;
3817;SDS011;1924;48.078;11.516;2024-03-02T09:24:05;29.30;;;0.80;;
3817;SDS011;1924;48.078;11.516;2024-03-02T09:26:35;29.27;;;0.80;;
3817;SDS011;1924;48.078;11.516;2024-03-02T09:29:02;29.30;;;0.77;;
3817;SDS011;1924;48.078;11.516;2024-03-02T09:31:30;29.17;;;0.70;;
3817;SDS011;1924;48.078;11.516;2024-03-02T09:33:57;29.20;;;0.80;;
3817;SDS011;1924;48.078;11.516;2024-03-02T09:36:24;29.20;;;0.80;;
3817;SDS011;1924;48.078;11.516;2024-03-02T09:38:50;29.10;;;0.80;;
3817;SDS011;1924;48.078;11.516;2024-03-02T09:41:17;29.27;;;0.80;;
3817;SDS011;1924;48.078;11.516;2024-03-02T09:43:45;29.20;;;0.80;;
3817;SDS011;1924;48.078;11.516;2024-03-02T09:46:12;29.10;;;0.80;;
3817;SDS011;1924;48.078;11.516;2024-03-02T09:48:40;29.10;;;0.80;;
3817;SDS011;1924;48.078;11.516;2024-03-02T09:51:07;29.20;;;0.80;;
3817;SDS011;1924;48.078;11.516;2024-03-02T09:53:35;29.27;;;0.73;;
3817;SDS011;1924;48.078;11.516;2024-03-02T09:56:02;29.07;;;0.80;;
3817;SDS011;1924;48.078;11.516;2024-03-02T09:58:29;29.30;;;0.80;;
3817;SDS011;1924;48.078;11.516;2024-03-02T10:00:56;29.30;;;0.73;;
3817;SDS011;1924;48.078;11.516;2024-03-02T10:03:23;29.17;;;0.80;;
3817;SDS011;1924;48.078;11.516;2024-03-02T10:05:51;29.30;;;0.80;;
3817;SDS011;1924;48.078;11.516;2024-03-02T10:08:18;29.37;;;0.80;;
3817;SDS011;1924;48.078;11.516;2024-03-02T10:10:45;29.27;;;0.80;;
3817;SDS011;1924;48.078;11.516;2024-03-02T10:13:13;29.40;;;0.80;;
3817;SDS011;1924;48.078;11.516;2024-03-02T10:15:41;29.57;;;0.80;;
3817;SDS011;1924;48.078;11.516;2024-03-02T10:18:08;29.53;;;0.80;;
3817;SDS011;1924;48.078;11.516;2024-03-02T10:20:37;29.73;;;0.80;;
3817;SDS011;1924;48.078;11.516;2024-03-02T10:23:11;29.60;;;0.80;;
3817;SDS011;1924;48.078;11.516;2024-03-02T10:25:39;29.37;;;0.80;;
3817;SDS011;1924;48.078;11.516;2024-03-02T10:28:06;29.47;;;0.73;;
3817;SDS011;1924;48.078;11.516;2024-03-02T10:30:33;29.57;;;0.80;;
3817;SDS011;1924;48.078;11.516;2024-03-02T10:33:00;29.50;;;0.80;;
3817;SDS011;1924;48.078;11.516;2024-03-02T10:35:28;29.70;;;0.80;;
3817;SDS011;1924;48.078;11.516;2024-03-02T10:37:56;29.70;;;0.80;;
3817;SDS011;1924;48.078;11.516;2024-03-02T10:40:26;29.90;;;0.80;;
3817;SDS011;1924;48.078;11.516;2024-03-02T10:42:53;29.80;;;0.80;;
3817;SDS011;1924;48.078;11.516;2024-03-02T10:45:20;29.77;;;0.80;;
3817;SDS011;1924;48.078;11.516;2024-03-02T10:47:48;30.10;;;0.80;;
3817;SDS011;1924;48.078;11.516;2024-03-02T10:50:16;30.20;;;0.80;;
3817;SDS011;1924;48.078;11.516;2024-03-02T10:52:43;30.07;;;0.80;;
3817;SDS011;1924;48.078;11.516;2024-03-02T10:55:11;30.50;;;0.80;;
3817;SDS011;1924;48.078;11.516;2024-03-02T10:57:42;30.33;;;0.80;;
3817;SDS011;1924;48.078;11.516;2024-03-02T11:00:15;30.80;;;0.80;;
3817;SDS011;1924;48.078;11.516;2024-03-02T11:02:46;30.70;;;0.80;;
3817;SDS011;1924;48.078;11.516;2024-03-02T11:05:18;30.80;;;0.80;;
3817;SDS011;1924;48.078;11.516;2024-03-02T11:07:52;31.20;;;0.80;;
3817;SDS011;1924;48.078;11.516;2024-03-02T11:10:22;31.27;;;0.80;;
3817;SDS011;1924;48.078;11.516;2024-03-02T11:12:53;31.07;;;0.80;;
3817;SDS011;1924;48.078;11.516;2024-03-02T11:15:25;31.03;;;0.80;;
3817;SDS011;1924;48.078;11.516;2024-03-02T11:17:54;31.10;;;0.80;;
3817;SDS011;1924;48.078;11.516;2024-03-02T11:20:22;31.23;;;0.80;;
3817;SDS011;1924;48.078;11.516;2024-03-02T11:22:49;31.17;;;0.80;;
3817;SDS011;1924;48.078;11.516;2024-03-02T11:25:22;31.20;;;0.80;;
3817;SDS011;1924;48.078;11.516;2024-03-02T11:28:01;31.30;;;0.80;;
3817;SDS011;1924;48.078;11.516;2024-03-02T11:33:27;31.50;;;0.80;;
3817;SDS011;1924;48.078;11.516;2024-03-02T11:35:55;31.57;;;0.80;;
3817;SDS011;1924;48.078;11.516;2024-03-02T11:38:24;31.57;;;0.80;;
3817;SDS011;1924;48.078;11.516;2024-03-02T11:40:54;31.50;;;0.80;;
3817;SDS011;1924;48.078;11.516;2024-03-02T11:43:22;31.37;;;0.80;;
3817;SDS011;1924;48.078;11.516;2024-03-02T11:45:49;31.30;;;0.80;;
3817;SDS011;1924;48.078;11.516;2024-03-02T11:48:23;31.17;;;0.80;;
3817;SDS011;1924;48.078;11.516;2024-03-02T11:50:51;31.20;;;0.80;;
3817;SDS011;1924;48.078;11.516;2024-03-02T11:53:19;31.17;;;0.80;;
3817;SDS011;1924;48.078;11.516;2024-03-02T11:55:47;31.23;;;0.80;;
3817;SDS011;1924;48.078;11.516;2024-03-02T11:58:16;31.27;;;0.80;;
3817;SDS011;1924;48.078;11.516;2024-03-02T12:00:46;31.60;;;0.80;;
3817;SDS011;1924;48.078;11.516;2024-03-02T12:03:13;31.50;;;0.80;;
3817;SDS011;1924;48.078;11.516;2024-03-02T12:05:41;31.60;;;0.80;;
3817;SDS011;1924;48.078;11.516;2024-03-02T12:08:08;31.80;;;0.80;;
3817;SDS011;1924;48.078;11.516;2024-03-02T12:10:37;31.87;;;0.80;;
3817;SDS011;1924;48.078;11.516;2024-03-02T12:13:04;31.80;;;0.80;;
3817;SDS011;1924;48.078;11.516;2024-03-02T12:15:35;31.87;;;0.80;;
3817;SDS011;1924;48.078;11.516;2024-03-02T12:18:04;32.00;;;0.80;;
3817;SDS011;1924;48.078;11.516;2024-03-02T12:20:32;31.90;;;0.80;;
3817;SDS011;1924;48.078;11.516;2024-03-02T12:23:00;31.87;;;0.80;;
3817;SDS011;1924;48.078;11.516;2024-03-02T12:25:28;32.07;;;0.80;;
3817;SDS011;1924;48.078;11.516;2024-03-02T12:27:58;32.57;;;0.80;;
3817;SDS011;1924;48.078;11.516;2024-03-02T12:30:27;32.53;;;0.80;;
3817;SDS011;1924;48.078;11.516;2024-03-02T12:32:56;32.47;;;0.80;;
3817;SDS011;1924;48.078;11.516;2024-03-02T12:35:24;32.47;;;0.80;;
3817;SDS011;1924;48.078;11.516;2024-03-02T12:37:52;32.30;;;0.80;;
3817;SDS011;1924;48.078;11.516;2024-03-02T12:40:19;32.30;;;0.80;;
3817;SDS011;1924;48.078;11.516;2024-03-02T12:42:47;32.40;;;0.80;;
3817;SDS011;1924;48.078;11.516;2024-03-02T12:45:15;32.20;;;0.80;;
3817;SDS011;1924;48.078;11.516;2024-03-02T12:47:48;32.10;;;0.80;;
3817;SDS011;1924;48.078;11.516;2024-03-02T12:50:15;31.87;;;0.80;;
3817;SDS011;1924;48.078;11.516;2024-03-02T12:52:43;32.27;;;0.83;;
3817;SDS011;1924;48.078;11.516;2024-03-02T12:55:16;32.00;;;0.80;;
3817;SDS011;1924;48.078;11.516;2024-03-02T12:57:43;32.30;;;0.80;;
3817;SDS011;1924;48.078;11.516;2024-03-02T13:00:10;32.00;;;0.80;;
3817;SDS011;1924;48.078;11.516;2024-03-02T13:02:41;31.97;;;0.80;;
3817;SDS011;1924;48.078;11.516;2024-03-02T13:05:08;32.13;;;0.80;;
3817;SDS011;1924;48.078;11.516;2024-03-02T13:07:36;31.97;;;0.80;;
3817;SDS011;1924;48.078;11.516;2024-03-02T13:10:04;32.20;;;0.80;;
3817;SDS011;1924;48.078;11.516;2024-03-02T13:12:32;32.20;;;0.80;;
3817;SDS011;1924;48.078;11.516;2024-03-02T13:14:59;32.33;;;0.80;;
3817;SDS011;1924;48.078;11.516;2024-03-02T13:17:27;32.20;;;0.80;;
3817;SDS011;1924;48.078;11.516;2024-03-02T13:19:55;32.27;;;0.80;;
3817;SDS011;1924;48.078;11.516;2024-03-02T13:22:22;32.27;;;0.80;;
3817;SDS011;1924;48.078;11.516;2024-03-02T13:24:49;32.27;;;0.80;;
3817;SDS011;1924;48.078;11.516;2024-03-02T13:27:18;32.37;;;0.80;;
3817;SDS011;1924;48.078;11.516;2024-03-02T13:29:45;32.03;;;0.80;;
3817;SDS011;1924;48.078;11.516;2024-03-02T13:32:13;32.40;;;0.80;;
3817;SDS011;1924;48.078;11.516;2024-03-02T13:34:40;32.23;;;0.80;;
3817;SDS011;1924;48.078;11.516;2024-03-02T13:37:08;32.17;;;0.80;;
3817;SDS011;1924;48.078;11.516;2024-03-02T13:39:40;31.87;;;0.80;;
3817;SDS011;1924;48.078;11.516;2024-03-02T13:42:07;32.00;;;0.80;;
3817;SDS011;1924;48.078;11.516;2024-03-02T13:44:37;31.87;;;0.80;;
3817;SDS011;1924;48.078;11.516;2024-03-02T13:47:04;32.07;;;0.80;;
3817;SDS011;1924;48.078;11.516;2024-03-02T13:49:31;31.87;;;0.80;;
3817;SDS011;1924;48.078;11.516;2024-03-02T13:52:02;31.67;;;0.80;;
3817;SDS011;1924;48.078;11.516;2024-03-02T13:54:39;31.63;;;0.80;;
3817;SDS011;1924;48.078;11.516;2024-03-02T13:57:07;31.90;;;0.80;;
3817;SDS011;1924;48.078;11.516;2024-03-02T13:59:34;31.70;;;0.80;;
3817;SDS011;1924;48.078;11.516;2024-03-02T14:02:02;31.73;;;0.80;;
3817;SDS011;1924;48.078;11.516;2024-03-02T14:04:31;31.47;;;0.80;;
3817;SDS011;1924;48.078;11.516;2024-03-02T14:06:58;31.47;;;0.80;;
3817;SDS011;1924;48.078;11.516;2024-03-02T14:09:25;31.67;;;0.80;;
3817;SDS011;1924;48.078;11.516;2024-03-02T14:11:52;31.50;;;0.80;;
3817;SDS011;1924;48.078;11.516;2024-03-02T14:14:19;31.57;;;0.80;;
3817;SDS011;1924;48.078;11.516;2024-03-02T14:16:46;31.60;;;0.80;;
3817;SDS011;1924;48.078;11.516;2024-03-02T14:19:14;31.57;;;0.80;;
3817;SDS011;1924;48.078;11.516;2024-03-02T14:21:41;31.57;;;0.80;;
3817;SDS011;1924;48.078;11.516;2024-03-02T14:24:07;31.47;;;0.80;;
3817;SDS011;1924;48.078;11.516;2024-03-02T14:26:34;31.37;;;0.80;;
3817;SDS011;1924;48.078;11.516;2024-03-02T14:29:02;31.47;;;0.80;;
3817;SDS011;1924;48.078;11.516;2024-03-02T14:31:29;31.43;;;0.80;;
3817;SDS011;1924;48.078;11.516;2024-03-02T14:33:57;31.60;;;0.80;;
3817;SDS011;1924;48.078;11.516;2024-03-02T14:36:25;31.17;;;0.80;;
3817;SDS011;1924;48.078;11.516;2024-03-02T14:38:52;31.30;;;0.80;;
3817;SDS011;1924;48.078;11.516;2024-03-02T14:41:19;31.17;;;0.80;;
3817;SDS011;1924;48.078;11.516;2024-03-02T14:43:46;31.30;;;0.80;;
3817;SDS011;1924;48.078;11.516;2024-03-02T14:46:14;31.40;;;0.80;;
3817;SDS011;1924;48.078;11.516;2024-03-02T14:48:42;31.30;;;0.80;;
3817;SDS011;1924;48.078;11.516;2024-03-02T14:51:11;31.40;;;0.80;;
3817;SDS011;1924;48.078;11.516;2024-03-02T14:53:40;31.20;;;0.80;;
3817;SDS011;1924;48.078;11.516;2024-03-02T14:56:07;31.27;;;0.80;;
3817;SDS011;1924;48.078;11.516;2024-03-02T14:58:34;31.30;;;0.80;;
3817;SDS011;1924;48.078;11.516;2024-03-02T15:01:01;31.17;;;0.80;;
3817;SDS011;1924;48.078;11.516;2024-03-02T15:03:29;31.20;;;0.80;;
3817;SDS011;1924;48.078;11.516;2024-03-02T15:05:56;31.27;;;0.80;;
3817;SDS011;1924;48.078;11.516;2024-03-02T15:08:23;31.10;;;0.80;;
3817;SDS011;1924;48.078;11.516;2024-03-02T15:10:51;31.17;;;0.80;;
3817;SDS011;1924;48.078;11.516;2024-03-02T15:13:20;31.17;;;0.80;;
3817;SDS011;1924;48.078;11.516;2024-03-02T15:15:47;30.97;;;0.80;;
3817;SDS011;1924;48.078;11.516;2024-03-02T15:18:14;31.13;;;0.80;;
3817;SDS011;1924;48.078;11.516;2024-03-02T15:20:41;31.10;;;0.80;;
3817;SDS011;1924;48.078;11.516;2024-03-02T15:23:08;31.13;;;0.80;;
3817;SDS011;1924;48.078;11.516;2024-03-02T15:25:34;31.20;;;0.80;;
3817;SDS011;1924;48.078;11.516;2024-03-02T15:28:03;31.07;;;0.80;;
3817;SDS011;1924;48.078;11.516;2024-03-02T15:30:30;31.07;;;0.80;;
3817;SDS011;1924;48.078;11.516;2024-03-02T15:32:56;31.17;;;0.80;;
3817;SDS011;1924;48.078;11.516;2024-03-02T15:35:23;31.10;;;0.80;;
3817;SDS011;1924;48.078;11.516;2024-03-02T15:37:50;30.80;;;0.80;;
3817;SDS011;1924;48.078;11.516;2024-03-02T15:40:17;31.17;;;0.80;;
3817;SDS011;1924;48.078;11.516;2024-03-02T15:42:44;31.07;;;0.80;;
3817;SDS011;1924;48.078;11.516;2024-03-02T15:45:12;31.03;;;0.80;;
3817;SDS011;1924;48.078;11.516;2024-03-02T15:47:39;31.10;;;0.80;;
3817;SDS011;1924;48.078;11.516;2024-03-02T15:50:06;31.03;;;0.80;;
3817;SDS011;1924;48.078;11.516;2024-03-02T15:52:34;31.10;;;0.80;;
3817;SDS011;1924;48.078;11.516;2024-03-02T15:55:00;30.97;;;0.80;;
3817;SDS011;1924;48.078;11.516;2024-03-02T15:57:30;31.00;;;0.80;;
3817;SDS011;1924;48.078;11.516;2024-03-02T15:59:57;31.00;;;0.80;;
3817;SDS011;1924;48.078;11.516;2024-03-02T16:02:25;31.10;;;0.80;;
3817;SDS011;1924;48.078;11.516;2024-03-02T16:04:54;30.83;;;0.80;;
3817;SDS011;1924;48.078;11.516;2024-03-02T16:07:21;30.87;;;0.80;;
3817;SDS011;1924;48.078;11.516;2024-03-02T16:09:48;30.87;;;0.80;;
3817;SDS011;1924;48.078;11.516;2024-03-02T16:12:15;30.87;;;0.80;;
3817;SDS011;1924;48.078;11.516;2024-03-02T16:14:41;31.00;;;0.80;;
3817;SDS011;1924;48.078;11.516;2024-03-02T16:17:08;30.90;;;0.80;;
3817;SDS011;1924;48.078;11.516;2024-03-02T16:19:36;30.80;;;0.80;;
3817;SDS011;1924;48.078;11.516;2024-03-02T16:22:05;30.70;;;0.80;;
3817;SDS011;1924;48.078;11.516;2024-03-02T16:24:35;30.70;;;0.80;;
3817;SDS011;1924;48.078;11.516;2024-03-02T16:27:02;30.60;;;0.80;;
3817;SDS011;1924;48.078;11.516;2024-03-02T16:29:29;30.70;;;0.80;;
3817;SDS011;1924;48.078;11.516;2024-03-02T16:31:57;30.80;;;0.80;;
3817;SDS011;1924;48.078;11.516;2024-03-02T16:34:23;30.60;;;0.80;;
3817;SDS011;1924;48.078;11.516;2024-03-02T16:36:51;30.63;;;0.80;;
3817;SDS011;1924;48.078;11.516;2024-03-02T16:39:18;30.77;;;0.83;;
3817;SDS011;1924;48.078;11.516;2024-03-02T16:41:45;30.60;;;0.80;;
3817;SDS011;1924;48.078;11.516;2024-03-02T16:44:12;30.47;;;0.80;;
3817;SDS011;1924;48.078;11.516;2024-03-02T16:46:39;30.50;;;0.80;;
3817;SDS011;1924;48.078;11.516;2024-03-02T16:49:06;30.37;;;0.80;;
3817;SDS011;1924;48.078;11.516;2024-03-02T16:51:37;30.40;;;0.80;;
3817;SDS011;1924;48.078;11.516;2024-03-02T16:54:06;30.40;;;0.80;;
3817;SDS011;1924;48.078;11.516;2024-03-02T16:56:37;30.40;;;0.80;;
3817;SDS011;1924;48.078;11.516;2024-03-02T16:59:04;30.47;;;0.80;;
3817;SDS011;1924;48.078;11.516;2024-03-02T17:01:31;29.97;;;0.80;;
3817;SDS011;1924;48.078;11.516;2024-03-02T17:03:58;30.40;;;0.80;;
3817;SDS011;1924;48.078;11.516;2024-03-02T17:06:25;30.17;;;0.80;;
3817;SDS011;1924;48.078;11.516;2024-03-02T17:08:52;30.30;;;0.80;;
3817;SDS011;1924;48.078;11.516;2024-03-02T17:11:20;30.27;;;0.80;;
3817;SDS011;1924;48.078;11.516;2024-03-02T17:13:47;30.20;;;0.80;;
3817;SDS011;1924;48.078;11.516;2024-03-02T17:16:16;30.10;;;0.80;;
3817;SDS011;1924;48.078;11.516;2024-03-02T17:18:43;30.00;;;0.80;;
3817;SDS011;1924;48.078;11.516;2024-03-02T17:21:09;30.10;;;0.80;;
3817;SDS011;1924;48.078;11.516;2024-03-02T17:23:36;30.00;;;0.80;;
3817;SDS011;1924;48.078;11.516;2024-03-02T17:26:03;30.10;;;0.80;;
3817;SDS011;1924;48.078;11.516;2024-03-02T17:28:31;30.10;;;0.80;;
3817;SDS011;1924;48.078;11.516;2024-03-02T17:30:58;30.10;;;0.80;;
3817;SDS011;1924;48.078;11.516;2024-03-02T17:33:25;29.90;;;0.80;;
3817;SDS011;1924;48.078;11.516;2024-03-02T17:35:52;29.90;;;0.80;;
3817;SDS011;1924;48.078;11.516;2024-03-02T17:38:20;29.90;;;0.80;;
3817;SDS011;1924;48.078;11.516;2024-03-02T17:40:47;29.70;;;0.80;;
3817;SDS011;1924;48.078;11.516;2024-03-02T17:43:13;29.87;;;0.90;;
3817;SDS011;1924;48.078;11.516;2024-03-02T17:45:41;29.70;;;0.80;;
3817;SDS011;1924;48.078;11.516;2024-03-02T17:48:08;29.70;;;0.80;;
3817;SDS011;1924;48.078;11.516;2024-03-02T17:50:36;29.77;;;0.80;;
3817;SDS011;1924;48.078;11.516;2024-03-02T17:53:03;29.60;;;0.80;;
3817;SDS011;1924;48.078;11.516;2024-03-02T17:55:30;29.77;;;0.80;;
3817;SDS011;1924;48.078;11.516;2024-03-02T17:57:57;29.50;;;0.80;;
3817;SDS011;1924;48.078;11.516;2024-03-02T18:00:24;29.60;;;0.80;;
3817;SDS011;1924;48.078;11.516;2024-03-02T18:02:52;29.70;;;0.80;;
3817;SDS011;1924;48.078;11.516;2024-03-02T18:05:19;29.60;;;0.80;;
3817;SDS011;1924;48.078;11.516;2024-03-02T18:07:46;29.77;;;0.80;;
3817;SDS011;1924;48.078;11.516;2024-03-02T18:10:12;29.60;;;0.80;;
3817;SDS011;1924;48.078;11.516;2024-03-02T18:12:39;29.50;;;0.80;;
3817;SDS011;1924;48.078;11.516;2024-03-02T18:15:06;29.80;;;0.80;;
3817;SDS011;1924;48.078;11.516;2024-03-02T18:17:34;29.60;;;0.80;;
3817;SDS011;1924;48.078;11.516;2024-03-02T18:20:03;29.57;;;0.80;;
3817;SDS011;1924;48.078;11.516;2024-03-02T18:22:31;29.67;;;0.80;;
3817;SDS011;1924;48.078;11.516;2024-03-02T18:24:59;29.53;;;0.80;;
3817;SDS011;1924;48.078;11.516;2024-03-02T18:27:26;29.50;;;0.80;;
3817;SDS011;1924;48.078;11.516;2024-03-02T18:29:53;29.50;;;0.80;;
3817;SDS011;1924;48.078;11.516;2024-03-02T18:32:19;29.67;;;0.80;;
3817;SDS011;1924;48.078;11.516;2024-03-02T18:34:46;29.60;;;0.80;;
3817;SDS011;1924;48.078;11.516;2024-03-02T18:37:14;29.60;;;0.80;;
3817;SDS011;1924;48.078;11.516;2024-03-02T18:39:46;29.70;;;0.80;;
3817;SDS011;1924;48.078;11.516;2024-03-02T18:42:13;29.70;;;0.80;;
3817;SDS011;1924;48.078;11.516;2024-03-02T18:44:40;29.47;;;0.80;;
3817;SDS011;1924;48.078;11.516;2024-03-02T18:47:10;29.50;;;0.80;;